Time;durP1;ratioP1;P1;durP2;ratioP2;P2;SDS_P1;SDS_P2;PMS_P1;PMS_P2;Temp;Humidity;BMP_temperature;BMP_pressure;BME280_temperature;BME280_humidity;BME280_pressure;Samples;Min_cycle;Max_cycle;Signal;HPM_P1;HPM_P2
2022/01/16 00:04:11;;;;;;;31.30;15.52;;;;;;;;;;5034880;28;20098;-86
2022/01/16 00:06:38;;;;;;;;;;;;;;;;;;5086454;28;20686;-85
2022/01/16 00:09:05;;;;;;;28.38;13.55;;;;;;;;;;5085991;28;19923;-85
2022/01/16 00:11:30;;;;;;;30.73;14.98;;;;;;;;;;5084762;28;20107;-85
2022/01/16 00:13:56;;;;;;;34.75;16.90;;;;;;;;;;5078228;28;20115;-84
2022/01/16 00:16:22;;;;;;;31.02;16.75;;;;;;;;;;5100224;28;20024;-85
2022/01/16 00:18:52;;;;;;;31.92;15.80;;;;;;;;;;5081314;28;20051;-83
2022/01/16 00:21:27;;;;;;;36.38;16.90;;;;;;;;;;5081352;28;20024;-82
2022/01/16 00:23:53;;;;;;;37.75;18.45;;;;;;;;;;5084190;28;20032;-83
2022/01/16 00:26:21;;;;;;;32.25;16.85;;;;;;;;;;5086139;28;20038;-85
2022/01/16 00:28:49;;;;;;;36.70;18.52;;;;;;;;;;5077543;28;20052;-83
2022/01/16 00:31:15;;;;;;;32.70;16.05;;;;;;;;;;5074629;28;20106;-84
2022/01/16 00:33:42;;;;;;;31.35;16.92;;;;;;;;;;5076233;28;20052;-83
2022/01/16 00:36:10;;;;;;;32.80;17.92;;;;;;;;;;5082572;28;20027;-83
2022/01/16 00:38:43;;;;;;;33.88;17.23;;;;;;;;;;5073509;28;20063;-84
2022/01/16 00:41:09;;;;;;;34.60;17.42;;;;;;;;;;5074416;28;20753;-85
2022/01/16 00:43:34;;;;;;;34.90;18.08;;;;;;;;;;5070789;28;20024;-85
2022/01/16 00:45:59;;;;;;;35.63;17.67;;;;;;;;;;5075911;28;20115;-85
2022/01/16 00:48:25;;;;;;;35.97;17.13;;;;;;;;;;5074910;28;20062;-83
2022/01/16 00:50:55;;;;;;;35.38;16.77;;;;;;;;;;5078279;28;20099;-84
2022/01/16 00:53:20;;;;;;;35.85;17.08;;;;;;;;;;5080642;28;20027;-84
2022/01/16 00:55:46;;;;;;;34.10;16.83;;;;;;;;;;5078434;28;20020;-85
2022/01/16 00:58:11;;;;;;;33.50;17.10;;;;;;;;;;5078844;28;20030;-84
2022/01/16 01:00:37;;;;;;;35.17;16.98;;;;;;;;;;5085242;28;20024;-84
2022/01/16 01:03:06;;;;;;;31.80;16.20;;;;;;;;;;5080776;28;20138;-84
2022/01/16 01:05:32;;;;;;;38.25;18.02;;;;;;;;;;5083553;28;20025;-84
2022/01/16 01:07:58;;;;;;;33.35;16.38;;;;;;;;;;5078801;28;20032;-85
2022/01/16 01:10:29;;;;;;;33.22;16.10;;;;;;;;;;5078025;28;20020;-84
2022/01/16 01:12:57;;;;;;;34.60;17.45;;;;;;;;;;5086702;28;20059;-83
2022/01/16 01:15:29;;;;;;;34.63;17.58;;;;;;;;;;5079688;28;20115;-86
2022/01/16 01:17:56;;;;;;;36.25;16.67;;;;;;;;;;5079476;28;20028;-84
2022/01/16 01:20:23;;;;;;;40.00;19.20;;;;;;;;;;5080328;28;20527;-84
2022/01/16 01:22:50;;;;;;;37.15;18.05;;;;;;;;;;5076484;28;20029;-85
2022/01/16 01:25:17;;;;;;;36.80;18.92;;;;;;;;;;5088697;28;20031;-86
2022/01/16 01:27:44;;;;;;;39.13;18.92;;;;;;;;;;5086706;28;20502;-83
2022/01/16 01:30:11;;;;;;;35.63;17.60;;;;;;;;;;5098663;28;20039;-86
2022/01/16 01:32:38;;;;;;;37.05;18.27;;;;;;;;;;5098741;27;20032;-85
2022/01/16 01:35:06;;;;;;;43.72;18.55;;;;;;;;;;5095286;28;20035;-84
2022/01/16 01:37:31;;;;;;;37.70;19.08;;;;;;;;;;5086698;28;20028;-85
2022/01/16 01:39:56;;;;;;;39.53;19.25;;;;;;;;;;5084549;28;20581;-85
2022/01/16 01:42:24;;;;;;;35.15;17.05;;;;;;;;;;5086482;28;20083;-86
2022/01/16 01:53:01;;;;;;;37.90;18.08;;;;;;;;;;5101919;28;20039;-83
2022/01/16 01:55:27;;;;;;;38.67;18.55;;;;;;;;;;5084276;28;20023;-86
2022/01/16 01:57:53;;;;;;;33.03;17.42;;;;;;;;;;5084915;28;20050;-83
2022/01/16 02:00:19;;;;;;;39.35;18.90;;;;;;;;;;5082432;28;20034;-86
2022/01/16 02:05:29;;;;;;;36.85;17.90;;;;;;;;;;5098026;28;20036;-85
2022/01/16 02:07:54;;;;;;;37.33;17.20;;;;;;;;;;5082060;28;20046;-86
2022/01/16 02:10:20;;;;;;;36.45;19.13;;;;;;;;;;5087124;28;20567;-85
2022/01/16 02:12:49;;;;;;;38.05;18.35;;;;;;;;;;5089159;28;20117;-86
2022/01/16 02:27:58;;;;;;;35.08;18.45;;;;;;;;;;5083381;28;20371;-83
2022/01/16 02:32:12;;;;;;;37.03;18.50;;;;;;;;;;5101795;28;20064;-83
2022/01/16 02:34:41;;;;;;;35.88;16.27;;;;;;;;;;5086200;28;20031;-86
2022/01/16 02:37:09;;;;;;;39.97;18.73;;;;;;;;;;5086309;28;20036;-83
2022/01/16 02:39:37;;;;;;;38.85;17.63;;;;;;;;;;5082551;28;20565;-83
2022/01/16 02:42:04;;;;;;;36.95;17.73;;;;;;;;;;5080096;28;20473;-85
2022/01/16 02:44:42;;;;;;;37.72;17.27;;;;;;;;;;5104960;28;20027;-83
2022/01/16 02:47:10;;;;;;;36.85;16.92;;;;;;;;;;5083846;28;20040;-83
2022/01/16 02:49:35;;;;;;;38.33;16.83;;;;;;;;;;5087917;28;21579;-84
2022/01/16 02:52:05;;;;;;;34.75;16.63;;;;;;;;;;5085063;28;20028;-84
2022/01/16 02:54:35;;;;;;;38.90;17.67;;;;;;;;;;5083367;28;20060;-85
2022/01/16 02:57:04;;;;;;;42.95;19.17;;;;;;;;;;5081854;28;20023;-83
2022/01/16 02:59:30;;;;;;;35.22;17.35;;;;;;;;;;5084571;28;20405;-85
2022/01/16 03:01:56;;;;;;;43.80;18.08;;;;;;;;;;5082382;28;20031;-86
2022/01/16 03:04:21;;;;;;;37.63;16.50;;;;;;;;;;5087041;28;20027;-85
2022/01/16 03:06:47;;;;;;;36.20;17.35;;;;;;;;;;5085102;28;20023;-83
2022/01/16 03:09:13;;;;;;;38.83;17.10;;;;;;;;;;5086522;28;20040;-84
2022/01/16 03:11:45;;;;;;;38.45;17.85;;;;;;;;;;5083424;28;20063;-83
2022/01/16 03:14:13;;;;;;;38.83;18.47;;;;;;;;;;5079700;28;20032;-83
2022/01/16 03:16:43;;;;;;;37.13;17.05;;;;;;;;;;5087129;28;20327;-86
2022/01/16 03:21:57;;;;;;;36.17;17.88;;;;;;;;;;5103251;28;20089;-85
2022/01/16 03:24:39;;;;;;;39.20;19.15;;;;;;;;;;5084786;28;20504;-85
2022/01/16 03:27:11;;;;;;;38.35;18.92;;;;;;;;;;5086262;28;20035;-85
2022/01/16 03:29:37;;;;;;;43.83;20.17;;;;;;;;;;5084611;28;20055;-86
2022/01/16 03:32:05;;;;;;;38.83;19.85;;;;;;;;;;5081047;28;20035;-85
2022/01/16 03:34:31;;;;;;;39.97;20.30;;;;;;;;;;5078603;28;20374;-83
2022/01/16 03:36:56;;;;;;;46.33;21.10;;;;;;;;;;5094879;28;20042;-85
2022/01/16 03:39:22;;;;;;;45.22;21.17;;;;;;;;;;5080667;28;20496;-83
2022/01/16 03:41:47;;;;;;;46.63;21.17;;;;;;;;;;5077562;28;20078;-83
2022/01/16 03:44:12;;;;;;;42.35;19.83;;;;;;;;;;5075910;28;20072;-84
2022/01/16 03:46:40;;;;;;;43.85;19.95;;;;;;;;;;5084078;28;20481;-86
2022/01/16 03:49:21;;;;;;;44.25;21.23;;;;;;;;;;5082281;28;20481;-84
2022/01/16 03:51:48;;;;;;;42.55;20.67;;;;;;;;;;5079145;28;20119;-84
2022/01/16 03:54:16;;;;;;;41.17;20.98;;;;;;;;;;5084846;28;20035;-86
2022/01/16 03:56:42;;;;;;;45.70;22.08;;;;;;;;;;5097972;28;20061;-85
2022/01/16 03:59:07;;;;;;;43.95;21.70;;;;;;;;;;5084168;28;20020;-84
2022/01/16 04:01:33;;;;;;;42.28;20.35;;;;;;;;;;5101397;28;20080;-86
2022/01/16 04:03:59;;;;;;;45.53;21.95;;;;;;;;;;5079063;28;20032;-83
2022/01/16 04:06:25;;;;;;;47.78;21.30;;;;;;;;;;5076773;28;20440;-85
2022/01/16 04:08:53;;;;;;;47.53;21.58;;;;;;;;;;5075554;28;20454;-85
2022/01/16 04:11:19;;;;;;;51.45;22.42;;;;;;;;;;5076540;28;20546;-84
2022/01/16 04:13:53;;;;;;;45.17;20.83;;;;;;;;;;5078991;28;20032;-84
2022/01/16 04:16:21;;;;;;;46.40;21.85;;;;;;;;;;5079005;28;20027;-85
2022/01/16 04:18:51;;;;;;;45.65;21.25;;;;;;;;;;5077779;28;20032;-85
2022/01/16 04:21:21;;;;;;;47.75;21.25;;;;;;;;;;5078296;28;20024;-85
2022/01/16 04:23:47;;;;;;;50.55;22.25;;;;;;;;;;5071942;28;21606;-83
2022/01/16 04:26:13;;;;;;;48.65;23.02;;;;;;;;;;5099546;28;20027;-86
2022/01/16 04:28:39;;;;;;;49.97;22.65;;;;;;;;;;5100782;28;20055;-85
2022/01/16 04:31:04;;;;;;;42.35;20.77;;;;;;;;;;5082084;28;20484;-85
2022/01/16 04:33:30;;;;;;;47.10;20.85;;;;;;;;;;5096056;28;20101;-86
2022/01/16 04:35:56;;;;;;;46.53;20.63;;;;;;;;;;5082192;28;20029;-85
2022/01/16 04:38:21;;;;;;;53.08;23.10;;;;;;;;;;5099065;28;20042;-86
2022/01/16 04:43:51;;;;;;;48.17;20.40;;;;;;;;;;5100926;28;20084;-86
2022/01/16 04:46:23;;;;;;;50.83;23.80;;;;;;;;;;5086727;28;20122;-85
2022/01/16 04:48:50;;;;;;;46.05;20.25;;;;;;;;;;5110364;28;20083;-85
2022/01/16 04:51:16;;;;;;;47.83;23.05;;;;;;;;;;5081996;28;20051;-83
2022/01/16 04:53:42;;;;;;;48.15;23.00;;;;;;;;;;5087845;28;20020;-85
2022/01/16 04:56:07;;;;;;;47.70;22.25;;;;;;;;;;5085087;28;20504;-83
2022/01/16 04:58:34;;;;;;;52.78;24.08;;;;;;;;;;5085566;28;20020;-83
2022/01/16 05:00:59;;;;;;;50.95;24.73;;;;;;;;;;5107769;28;20028;-82
2022/01/16 05:03:26;;;;;;;43.85;22.70;;;;;;;;;;5085344;28;20027;-83
2022/01/16 05:05:52;;;;;;;48.53;24.38;;;;;;;;;;5086472;28;20055;-86
2022/01/16 05:08:17;;;;;;;51.97;24.00;;;;;;;;;;5087055;28;20494;-83
2022/01/16 05:10:43;;;;;;;52.63;24.40;;;;;;;;;;5081893;28;20020;-84
2022/01/16 05:18:35;;;;;;;51.13;25.52;;;;;;;;;;5104704;28;20092;-82
2022/01/16 05:21:01;;;;;;;50.00;24.40;;;;;;;;;;5084098;28;20050;-86
2022/01/16 05:23:27;;;;;;;51.88;24.70;;;;;;;;;;5102575;28;20027;-84
2022/01/16 05:25:52;;;;;;;48.90;24.95;;;;;;;;;;5083580;28;20030;-83
2022/01/16 05:28:18;;;;;;;54.63;25.67;;;;;;;;;;5101451;28;20056;-86
2022/01/16 05:30:43;;;;;;;48.45;24.45;;;;;;;;;;5081395;28;20015;-85
2022/01/16 05:33:08;;;;;;;49.72;25.02;;;;;;;;;;5104888;28;20028;-83
2022/01/16 05:35:34;;;;;;;49.30;25.27;;;;;;;;;;5087105;27;20023;-83
2022/01/16 05:37:59;;;;;;;46.97;23.88;;;;;;;;;;5102423;27;20103;-83
2022/01/16 05:40:25;;;;;;;49.90;25.35;;;;;;;;;;5082932;28;22589;-86
2022/01/16 05:42:50;;;;;;;50.72;26.55;;;;;;;;;;5098557;28;20183;-86
2022/01/16 05:45:15;;;;;;;51.17;25.80;;;;;;;;;;5084082;28;20081;-83
2022/01/16 05:47:41;;;;;;;47.38;24.88;;;;;;;;;;5085263;28;20092;-83
2022/01/16 05:50:06;;;;;;;50.50;25.48;;;;;;;;;;5088959;28;20028;-83
2022/01/16 05:52:32;;;;;;;47.83;26.50;;;;;;;;;;5089604;28;20036;-86
2022/01/16 05:54:57;;;;;;;50.83;25.88;;;;;;;;;;5087521;28;20054;-85
2022/01/16 05:57:22;;;;;;;48.42;26.05;;;;;;;;;;5087517;28;20031;-83
2022/01/16 05:59:48;;;;;;;47.83;25.30;;;;;;;;;;5085479;28;20027;-85
2022/01/16 06:02:13;;;;;;;46.22;24.63;;;;;;;;;;5084483;28;20092;-85
2022/01/16 06:04:39;;;;;;;47.72;25.48;;;;;;;;;;5089700;28;20023;-84
2022/01/16 06:07:05;;;;;;;48.25;25.95;;;;;;;;;;5091811;28;20034;-83
2022/01/16 06:09:30;;;;;;;51.63;26.13;;;;;;;;;;5084701;28;20432;-86
2022/01/16 06:11:57;;;;;;;54.28;26.63;;;;;;;;;;5083738;28;20120;-84
2022/01/16 06:14:23;;;;;;;48.05;26.65;;;;;;;;;;5101481;27;20020;-86
2022/01/16 06:16:50;;;;;;;46.75;25.55;;;;;;;;;;5084307;28;20114;-85
2022/01/16 06:19:15;;;;;;;46.75;26.25;;;;;;;;;;5086571;27;20031;-85
2022/01/16 06:21:41;;;;;;;48.80;25.63;;;;;;;;;;5084000;28;20027;-86
2022/01/16 06:24:06;;;;;;;46.80;25.27;;;;;;;;;;5091470;28;20024;-83
2022/01/16 06:26:32;;;;;;;50.70;26.98;;;;;;;;;;5087340;28;20031;-85
2022/01/16 06:28:57;;;;;;;46.90;25.10;;;;;;;;;;5085678;28;20093;-85
2022/01/16 06:31:23;;;;;;;50.00;26.88;;;;;;;;;;5084224;28;20016;-84
2022/01/16 06:33:49;;;;;;;49.35;26.30;;;;;;;;;;5085883;28;20690;-84
2022/01/16 06:36:14;;;;;;;45.60;25.90;;;;;;;;;;5102885;28;20056;-85
2022/01/16 06:38:40;;;;;;;46.17;24.92;;;;;;;;;;5086238;28;20373;-83
2022/01/16 06:41:05;;;;;;;46.92;26.00;;;;;;;;;;5086478;27;20043;-86
2022/01/16 06:43:30;;;;;;;46.00;24.55;;;;;;;;;;5083151;28;20027;-85
2022/01/16 06:45:56;;;;;;;46.70;25.40;;;;;;;;;;5084947;28;20028;-85
2022/01/16 06:48:22;;;;;;;49.80;25.40;;;;;;;;;;5084086;28;20016;-85
2022/01/16 06:50:47;;;;;;;46.22;25.75;;;;;;;;;;5081340;28;20032;-84
2022/01/16 06:53:13;;;;;;;46.40;26.23;;;;;;;;;;5087570;28;20080;-86
2022/01/16 06:55:38;;;;;;;47.15;26.35;;;;;;;;;;5083370;28;20501;-83
2022/01/16 06:58:04;;;;;;;50.78;26.42;;;;;;;;;;5079886;28;20047;-84
2022/01/16 07:00:29;;;;;;;45.80;25.63;;;;;;;;;;5087027;28;20062;-85
2022/01/16 07:02:54;;;;;;;48.97;25.52;;;;;;;;;;5080787;28;20028;-85
2022/01/16 07:05:20;;;;;;;47.70;26.10;;;;;;;;;;5084991;28;20030;-84
2022/01/16 07:07:45;;;;;;;44.33;24.02;;;;;;;;;;5088049;28;20027;-85
2022/01/16 07:10:10;;;;;;;48.92;27.40;;;;;;;;;;5087882;28;20168;-84
2022/01/16 07:12:36;;;;;;;45.45;25.33;;;;;;;;;;5101358;28;20031;-86
2022/01/16 07:15:01;;;;;;;42.42;24.00;;;;;;;;;;5086143;28;20019;-85
2022/01/16 07:17:26;;;;;;;45.92;25.58;;;;;;;;;;5102660;28;20040;-84
2022/01/16 07:19:52;;;;;;;43.80;23.70;;;;;;;;;;5093884;28;20110;-86
2022/01/16 07:22:21;;;;;;;48.35;24.70;;;;;;;;;;5087535;28;20020;-86
2022/01/16 07:24:46;;;;;;;44.92;24.52;;;;;;;;;;5083621;28;20049;-86
2022/01/16 07:27:12;;;;;;;42.13;24.67;;;;;;;;;;5083046;28;20039;-86
2022/01/16 07:29:37;;;;;;;43.47;24.60;;;;;;;;;;5086521;28;20050;-84
2022/01/16 07:32:03;;;;;;;46.67;25.40;;;;;;;;;;5100638;27;20035;-84
2022/01/16 07:34:28;;;;;;;40.47;23.60;;;;;;;;;;5086378;28;20516;-84
2022/01/16 07:36:53;;;;;;;40.28;22.52;;;;;;;;;;5102478;28;20039;-85
2022/01/16 07:39:19;;;;;;;42.25;23.48;;;;;;;;;;5083743;28;20063;-85
2022/01/16 07:41:44;;;;;;;41.35;21.52;;;;;;;;;;5102370;28;20035;-83
2022/01/16 07:44:09;;;;;;;43.53;22.00;;;;;;;;;;5089149;28;20431;-83
2022/01/16 07:46:35;;;;;;;43.58;23.50;;;;;;;;;;5098905;28;20027;-83
2022/01/16 07:49:00;;;;;;;37.67;21.48;;;;;;;;;;5082657;28;20159;-84
2022/01/16 07:51:25;;;;;;;44.00;22.42;;;;;;;;;;5082170;28;20078;-85
2022/01/16 07:53:52;;;;;;;43.80;23.13;;;;;;;;;;5097861;28;20032;-83
2022/01/16 07:56:18;;;;;;;40.30;22.55;;;;;;;;;;5081144;28;20401;-85
2022/01/16 07:58:43;;;;;;;38.97;21.98;;;;;;;;;;5097821;28;20059;-83
2022/01/16 08:01:09;;;;;;;36.17;20.58;;;;;;;;;;5105372;28;20485;-86
2022/01/16 08:03:34;;;;;;;43.50;22.65;;;;;;;;;;5089476;28;20108;-84
2022/01/16 08:05:59;;;;;;;45.35;22.23;;;;;;;;;;5090977;28;20031;-86
2022/01/16 08:08:25;;;;;;;39.75;22.60;;;;;;;;;;5086175;28;20038;-86
2022/01/16 08:10:50;;;;;;;44.85;22.90;;;;;;;;;;5081279;28;20035;-86
2022/01/16 08:13:16;;;;;;;39.90;22.35;;;;;;;;;;5089052;28;20029;-84
2022/01/16 08:15:43;;;;;;;41.10;22.27;;;;;;;;;;5081023;28;20485;-84
2022/01/16 08:18:09;;;;;;;38.20;21.00;;;;;;;;;;5084252;28;20028;-85
2022/01/16 08:20:34;;;;;;;39.22;21.02;;;;;;;;;;5080045;28;20044;-83
2022/01/16 08:23:00;;;;;;;38.55;20.85;;;;;;;;;;5084094;28;20034;-84
2022/01/16 08:25:25;;;;;;;40.08;21.23;;;;;;;;;;5079438;28;20126;-83
2022/01/16 08:27:51;;;;;;;40.05;21.30;;;;;;;;;;5077714;28;20024;-83
2022/01/16 08:30:16;;;;;;;37.13;19.85;;;;;;;;;;5079203;28;20241;-83
2022/01/16 08:32:44;;;;;;;38.00;20.50;;;;;;;;;;5077333;28;20020;-85
2022/01/16 08:35:12;;;;;;;39.67;20.92;;;;;;;;;;5074674;28;20050;-84
2022/01/16 08:37:37;;;;;;;38.25;19.92;;;;;;;;;;5075698;28;20067;-85
2022/01/16 08:40:04;;;;;;;40.13;21.48;;;;;;;;;;5072199;28;20116;-85
2022/01/16 08:42:30;;;;;;;38.10;21.25;;;;;;;;;;5076442;28;20490;-84
2022/01/16 08:44:55;;;;;;;39.88;20.63;;;;;;;;;;5076699;28;20156;-84
2022/01/16 08:47:20;;;;;;;38.40;20.75;;;;;;;;;;5071988;28;20146;-84
2022/01/16 08:49:46;;;;;;;43.17;21.52;;;;;;;;;;5072386;28;20040;-85
2022/01/16 08:52:11;;;;;;;43.00;22.67;;;;;;;;;;5071087;28;20020;-86
2022/01/16 08:54:37;;;;;;;44.88;22.77;;;;;;;;;;5089398;28;20484;-84
2022/01/16 08:57:03;;;;;;;42.85;22.00;;;;;;;;;;5062251;28;20380;-85
2022/01/16 08:59:29;;;;;;;41.67;21.75;;;;;;;;;;5066682;28;20041;-85
2022/01/16 09:01:55;;;;;;;44.00;22.40;;;;;;;;;;5068349;28;20814;-83
2022/01/16 09:04:20;;;;;;;46.90;23.70;;;;;;;;;;5065854;28;21775;-85
2022/01/16 09:06:45;;;;;;;47.75;23.33;;;;;;;;;;5088951;28;20027;-84
2022/01/16 09:09:11;;;;;;;49.60;22.67;;;;;;;;;;5066720;28;20447;-85
2022/01/16 09:11:36;;;;;;;43.70;23.45;;;;;;;;;;5085809;28;20023;-85
2022/01/16 09:14:02;;;;;;;49.42;24.23;;;;;;;;;;5069627;28;21617;-84
2022/01/16 09:16:28;;;;;;;47.85;23.13;;;;;;;;;;5086850;28;20470;-85
2022/01/16 09:18:53;;;;;;;44.33;22.67;;;;;;;;;;5072058;28;20036;-85
2022/01/16 09:21:19;;;;;;;44.47;22.63;;;;;;;;;;5087868;28;20031;-84
2022/01/16 09:23:46;;;;;;;46.00;23.80;;;;;;;;;;5079942;27;20124;-85
2022/01/16 09:26:12;;;;;;;50.05;27.08;;;;;;;;;;5077530;28;20117;-83
2022/01/16 09:28:37;;;;;;;52.75;25.85;;;;;;;;;;5080413;28;20113;-83
2022/01/16 09:31:04;;;;;;;47.03;23.88;;;;;;;;;;5078675;28;20385;-85
2022/01/16 09:33:29;;;;;;;50.45;23.95;;;;;;;;;;5073957;28;20036;-84
2022/01/16 09:35:55;;;;;;;50.90;24.40;;;;;;;;;;5078419;28;20038;-84
2022/01/16 09:38:22;;;;;;;53.92;25.50;;;;;;;;;;5078176;28;20055;-85
2022/01/16 09:40:48;;;;;;;51.08;26.20;;;;;;;;;;5076727;28;20024;-85
2022/01/16 09:43:16;;;;;;;48.45;25.13;;;;;;;;;;5097294;28;20085;-83
2022/01/16 09:45:42;;;;;;;52.00;26.25;;;;;;;;;;5080853;28;20036;-83
2022/01/16 09:48:07;;;;;;;52.92;25.83;;;;;;;;;;5080495;28;20097;-85
2022/01/16 09:50:38;;;;;;;56.17;25.30;;;;;;;;;;5076416;28;20051;-85
2022/01/16 09:53:04;;;;;;;59.55;26.05;;;;;;;;;;5087564;28;20034;-85
2022/01/16 09:55:30;;;;;;;60.03;28.15;;;;;;;;;;5085564;28;20024;-84
2022/01/16 09:57:57;;;;;;;55.53;26.13;;;;;;;;;;5083230;28;20028;-84
2022/01/16 10:00:24;;;;;;;64.65;28.67;;;;;;;;;;5102349;28;20031;-83
2022/01/16 10:02:52;;;;;;;57.75;28.15;;;;;;;;;;5083804;28;20474;-85
2022/01/16 10:05:29;;;;;;;62.70;29.08;;;;;;;;;;5084678;28;20073;-84
2022/01/16 10:07:56;;;;;;;60.90;28.38;;;;;;;;;;5086910;28;20481;-85
2022/01/16 10:10:30;;;;;;;63.67;27.48;;;;;;;;;;5088210;28;20027;-83
2022/01/16 10:13:04;;;;;;;61.50;26.02;;;;;;;;;;5086133;28;20028;-84
2022/01/16 10:15:30;;;;;;;61.53;27.90;;;;;;;;;;5090850;28;20035;-83
2022/01/16 10:17:58;;;;;;;65.75;30.25;;;;;;;;;;5092876;28;20038;-84
2022/01/16 10:20:25;;;;;;;63.80;29.42;;;;;;;;;;5088253;28;20052;-83
2022/01/16 10:22:59;;;;;;;64.88;28.92;;;;;;;;;;5082124;28;20738;-82
2022/01/16 10:25:45;;;;;;;64.03;29.35;;;;;;;;;;5081369;28;20030;-84
2022/01/16 10:28:26;;;;;;;64.28;28.83;;;;;;;;;;5082228;28;20085;-83
2022/01/16 10:30:57;;;;;;;69.85;30.42;;;;;;;;;;5076601;28;20528;-85
2022/01/16 10:33:33;;;;;;;69.85;29.45;;;;;;;;;;5082444;28;20135;-85
2022/01/16 10:35:58;;;;;;;67.53;28.83;;;;;;;;;;5080576;28;20122;-83
2022/01/16 10:38:29;;;;;;;71.13;30.95;;;;;;;;;;5101273;28;20102;-84
2022/01/16 10:40:57;;;;;;;71.03;29.48;;;;;;;;;;5081655;28;20581;-84
2022/01/16 10:43:43;;;;;;;69.60;29.90;;;;;;;;;;5088088;28;20114;-84
2022/01/16 10:46:11;;;;;;;73.60;29.48;;;;;;;;;;5086116;28;20108;-83
2022/01/16 10:48:37;;;;;;;74.90;29.50;;;;;;;;;;5086790;28;20023;-84
2022/01/16 10:51:02;;;;;;;72.20;28.63;;;;;;;;;;5082707;28;20028;-84
2022/01/16 10:53:30;;;;;;;77.55;28.65;;;;;;;;;;5074605;28;20035;-85
2022/01/16 10:56:04;;;;;;;70.22;29.55;;;;;;;;;;5078178;28;20514;-83
2022/01/16 10:58:41;;;;;;;77.13;29.20;;;;;;;;;;5080770;28;20027;-85
2022/01/16 11:01:13;;;;;;;70.68;27.10;;;;;;;;;;5078275;28;20033;-84
2022/01/16 11:03:41;;;;;;;71.00;27.75;;;;;;;;;;5080852;28;20031;-84
2022/01/16 11:06:07;;;;;;;71.90;27.80;;;;;;;;;;5078620;28;20023;-83
2022/01/16 11:08:34;;;;;;;77.55;29.80;;;;;;;;;;5081460;28;20111;-85
2022/01/16 11:11:06;;;;;;;81.93;29.27;;;;;;;;;;5085410;28;20032;-84
2022/01/16 11:13:36;;;;;;;77.22;27.60;;;;;;;;;;5082740;28;20022;-83
2022/01/16 11:16:07;;;;;;;81.40;29.15;;;;;;;;;;5080403;28;20043;-83
2022/01/16 11:18:38;;;;;;;72.28;28.42;;;;;;;;;;5085506;28;20401;-85
2022/01/16 11:21:15;;;;;;;75.38;28.23;;;;;;;;;;5086287;28;20074;-84
2022/01/16 11:26:22;;;;;;;73.00;26.48;;;;;;;;;;5099272;28;20586;-83
2022/01/16 11:28:51;;;;;;;68.18;25.85;;;;;;;;;;5094557;28;20787;-85
2022/01/16 11:31:16;;;;;;;73.82;27.38;;;;;;;;;;5088233;28;20028;-85
2022/01/16 11:33:43;;;;;;;75.65;27.25;;;;;;;;;;5083757;28;20038;-85
2022/01/16 11:36:13;;;;;;;69.20;26.98;;;;;;;;;;5084726;28;20397;-83
2022/01/16 11:38:49;;;;;;;75.20;27.00;;;;;;;;;;5083649;28;20032;-85
2022/01/16 11:41:26;;;;;;;68.18;26.55;;;;;;;;;;5087242;28;20069;-84
2022/01/16 11:43:54;;;;;;;70.68;25.60;;;;;;;;;;5080470;28;20035;-83
2022/01/16 11:46:24;;;;;;;70.10;27.25;;;;;;;;;;5077125;28;20177;-85
2022/01/16 11:48:59;;;;;;;66.00;26.58;;;;;;;;;;5081275;28;20036;-85
2022/01/16 11:51:38;;;;;;;73.80;25.77;;;;;;;;;;5081124;28;20093;-83
2022/01/16 11:54:10;;;;;;;77.35;27.60;;;;;;;;;;5083726;28;20024;-84
2022/01/16 11:56:41;;;;;;;73.10;26.38;;;;;;;;;;5082826;28;20020;-84
2022/01/16 11:59:13;;;;;;;73.15;27.90;;;;;;;;;;5101807;28;20493;-84
2022/01/16 12:01:51;;;;;;;70.72;27.60;;;;;;;;;;5074114;28;20024;-83
2022/01/16 12:04:28;;;;;;;80.30;28.65;;;;;;;;;;5078709;28;20078;-83
2022/01/16 12:06:55;;;;;;;74.30;28.10;;;;;;;;;;5073741;28;20023;-84
2022/01/16 12:09:38;;;;;;;73.57;26.67;;;;;;;;;;5078692;28;20138;-83
2022/01/16 12:12:23;;;;;;;84.97;29.58;;;;;;;;;;5066512;28;20039;-84
2022/01/16 12:15:11;;;;;;;77.45;26.55;;;;;;;;;;5072489;28;20043;-84
2022/01/16 12:17:44;;;;;;;83.68;29.75;;;;;;;;;;5057759;28;20054;-85
2022/01/16 12:20:13;;;;;;;82.25;29.48;;;;;;;;;;5072605;28;20922;-84
2022/01/16 12:22:47;;;;;;;84.93;28.52;;;;;;;;;;5069229;28;20085;-84
2022/01/16 12:25:24;;;;;;;86.95;28.50;;;;;;;;;;5067005;28;20038;-84
2022/01/16 12:27:56;;;;;;;89.68;29.85;;;;;;;;;;5067959;28;20024;-84
2022/01/16 12:30:59;;;;;;;81.13;29.13;;;;;;;;;;5063523;28;20059;-83
2022/01/16 12:33:50;;;;;;;75.18;27.40;;;;;;;;;;5070236;28;20127;-84
2022/01/16 12:36:17;;;;;;;78.32;29.45;;;;;;;;;;5085219;28;20034;-84
2022/01/16 12:39:03;;;;;;;79.00;29.80;;;;;;;;;;5069792;28;20024;-84
2022/01/16 12:41:38;;;;;;;77.90;28.23;;;;;;;;;;5074661;28;20389;-85
2022/01/16 12:44:12;;;;;;;83.65;30.23;;;;;;;;;;5063296;28;20024;-84
2022/01/16 12:46:45;;;;;;;73.38;28.85;;;;;;;;;;5074023;28;20047;-84
2022/01/16 12:49:14;;;;;;;76.35;28.98;;;;;;;;;;5066919;28;20359;-85
2022/01/16 12:51:42;;;;;;;78.57;28.83;;;;;;;;;;5071926;28;20096;-84
2022/01/16 12:54:16;;;;;;;79.13;28.83;;;;;;;;;;5065389;28;20537;-84
2022/01/16 12:56:50;;;;;;;76.22;29.75;;;;;;;;;;5075627;28;21116;-84
2022/01/16 12:59:22;;;;;;;79.65;32.70;;;;;;;;;;5078556;28;20027;-83
2022/01/16 13:01:55;;;;;;;77.65;29.33;;;;;;;;;;5077219;28;20091;-84
2022/01/16 13:04:46;;;;;;;80.43;30.67;;;;;;;;;;5076638;28;20032;-84
2022/01/16 13:07:17;;;;;;;72.80;27.63;;;;;;;;;;5071706;28;20067;-84
2022/01/16 13:09:43;;;;;;;73.97;30.05;;;;;;;;;;5073778;28;20079;-84
2022/01/16 13:12:16;;;;;;;76.78;30.15;;;;;;;;;;5095369;28;20443;-84
2022/01/16 13:14:43;;;;;;;71.32;29.58;;;;;;;;;;5071190;28;20502;-84
2022/01/16 13:17:11;;;;;;;87.22;34.08;;;;;;;;;;5078555;28;20096;-85
2022/01/16 13:19:56;;;;;;;65.93;29.05;;;;;;;;;;5077693;28;20019;-83
2022/01/16 13:22:27;;;;;;;65.93;27.83;;;;;;;;;;5098710;28;20039;-84
2022/01/16 13:25:06;;;;;;;69.95;28.02;;;;;;;;;;5074283;28;20399;-84
2022/01/16 13:27:34;;;;;;;63.22;27.27;;;;;;;;;;5075074;28;20431;-85
2022/01/16 13:30:11;;;;;;;62.60;27.48;;;;;;;;;;5052836;28;20040;-83
2022/01/16 13:32:37;;;;;;;80.03;26.77;;;;;;;;;;5052617;28;20032;-83
2022/01/16 13:35:17;;;;;;;60.85;25.92;;;;;;;;;;5050504;28;20032;-82
2022/01/16 13:37:43;;;;;;;59.55;25.33;;;;;;;;;;5053642;28;20115;-84
2022/01/16 13:40:17;;;;;;;63.00;25.55;;;;;;;;;;5050800;28;20036;-83
2022/01/16 13:43:22;;;;;;;59.92;26.27;;;;;;;;;;5056005;28;20021;-83
2022/01/16 13:45:49;;;;;;;55.25;25.58;;;;;;;;;;5048221;28;20113;-82
2022/01/16 13:48:21;;;;;;;60.75;26.15;;;;;;;;;;5053862;28;20090;-83
2022/01/16 13:50:49;;;;;;;54.47;23.50;;;;;;;;;;5054563;28;20033;-82
2022/01/16 13:53:17;;;;;;;51.30;23.70;;;;;;;;;;5054637;28;20021;-82
2022/01/16 13:55:53;;;;;;;51.88;24.35;;;;;;;;;;5047298;28;20029;-82
2022/01/16 13:58:27;;;;;;;48.75;23.25;;;;;;;;;;5049048;28;20585;-83
2022/01/16 14:00:58;;;;;;;57.65;25.60;;;;;;;;;;5050111;28;20037;-83
2022/01/16 14:03:29;;;;;;;52.58;24.75;;;;;;;;;;5048048;28;20071;-83
2022/01/16 14:06:06;;;;;;;46.65;23.33;;;;;;;;;;5050864;28;20040;-86
2022/01/16 14:08:36;;;;;;;43.47;23.23;;;;;;;;;;5052141;28;20040;-85
2022/01/16 14:11:23;;;;;;;43.30;22.27;;;;;;;;;;5055808;28;20037;-85
2022/01/16 14:13:57;;;;;;;47.08;23.77;;;;;;;;;;5044043;28;20087;-86
2022/01/16 14:19:27;;;;;;;45.75;23.67;;;;;;;;;;5045979;28;20040;-84
2022/01/16 14:22:02;;;;;;;50.40;23.17;;;;;;;;;;5042072;28;20891;-84
2022/01/16 14:24:39;;;;;;;45.10;22.67;;;;;;;;;;5051378;28;20510;-84
2022/01/16 14:27:07;;;;;;;48.97;24.17;;;;;;;;;;5047909;28;20036;-84
2022/01/16 14:29:36;;;;;;;45.53;24.65;;;;;;;;;;5068817;28;20064;-85
2022/01/16 14:32:15;;;;;;;45.38;23.98;;;;;;;;;;5070872;28;20558;-85
2022/01/16 14:34:45;;;;;;;48.80;25.15;;;;;;;;;;5070493;28;20039;-85
2022/01/16 14:37:13;;;;;;;52.22;25.17;;;;;;;;;;5072616;28;20025;-85
2022/01/16 14:39:39;;;;;;;48.25;24.73;;;;;;;;;;5068436;28;20028;-85
2022/01/16 14:42:07;;;;;;;44.13;23.48;;;;;;;;;;5064715;28;20035;-85
2022/01/16 14:44:38;;;;;;;50.33;25.55;;;;;;;;;;5065066;28;20032;-84
2022/01/16 14:47:06;;;;;;;49.95;25.13;;;;;;;;;;5069401;28;20140;-84
2022/01/16 14:49:35;;;;;;;53.00;24.58;;;;;;;;;;5067044;28;20039;-84
2022/01/16 14:52:01;;;;;;;53.42;25.98;;;;;;;;;;5074701;28;20031;-84
2022/01/16 14:54:26;;;;;;;49.80;24.92;;;;;;;;;;5073218;28;20043;-83
2022/01/16 14:56:52;;;;;;;51.10;24.95;;;;;;;;;;5069193;28;20156;-84
2022/01/16 14:59:18;;;;;;;52.30;25.73;;;;;;;;;;5083117;28;20020;-84
2022/01/16 15:01:45;;;;;;;55.78;26.50;;;;;;;;;;5085080;28;20024;-84
2022/01/16 15:04:12;;;;;;;64.07;28.33;;;;;;;;;;5078545;28;20110;-84
2022/01/16 15:06:40;;;;;;;59.90;27.65;;;;;;;;;;5080061;28;20031;-83
2022/01/16 15:09:06;;;;;;;55.40;26.33;;;;;;;;;;5084394;28;20039;-83
2022/01/16 15:11:52;;;;;;;54.30;25.25;;;;;;;;;;5083445;28;20032;-84